Time;durP1;ratioP1;P1;durP2;ratioP2;P2;SDS_P1;SDS_P2;PMS_P1;PMS_P2;Temp;Humidity;BMP_temperature;BMP_pressure;BME280_temperature;BME280_humidity;BME280_pressure;Samples;Min_cycle;Max_cycle;Signal;HPM_P1;HPM_P2
2023/03/23 00:01:30;;;;;;;1.92;1.20;;;;;;;12.15;69.40;97605.66;4158066;28;20037;-72
2023/03/23 00:03:31;;;;;;;2.08;1.13;;;;;;;12.14;68.68;97599.31;4157232;28;20073;-72
2023/03/23 00:05:32;;;;;;;2.17;1.40;;;;;;;12.14;69.04;97599.31;4157461;28;20041;-72
2023/03/23 00:07:33;;;;;;;4.03;1.58;;;;;;;12.15;69.19;97598.13;4158544;28;20057;-72
2023/03/23 00:09:34;;;;;;;3.13;1.38;;;;;;;12.19;68.44;97593.34;4157997;28;20494;-72
2023/03/23 00:11:34;;;;;;;3.10;1.30;;;;;;;12.25;68.92;97610.34;4157892;28;20107;-72
2023/03/23 00:13:35;;;;;;;2.33;1.48;;;;;;;12.23;68.83;97605.16;4157704;28;20068;-72
2023/03/23 00:15:35;;;;;;;5.00;1.73;;;;;;;12.21;68.83;97607.56;4158055;28;20033;-72
2023/03/23 00:17:35;;;;;;;4.75;1.67;;;;;;;12.15;69.70;97614.75;4158036;28;20061;-73
2023/03/23 00:19:48;;;;;;;3.33;1.30;;;;;;;12.19;69.63;97609.97;4157541;28;20052;-72
2023/03/23 00:21:48;;;;;;;3.30;1.40;;;;;;;12.16;69.57;97605.22;4157871;28;20867;-72
2023/03/23 00:23:48;;;;;;;3.08;1.35;;;;;;;12.18;68.90;97605.63;4157208;28;20049;-72
2023/03/23 00:25:52;;;;;;;1.42;0.95;;;;;;;12.30;68.00;97604.31;4157412;28;20050;-72
2023/03/23 00:27:53;;;;;;;2.88;1.17;;;;;;;12.27;68.26;97605.94;4157937;28;20573;-72
2023/03/23 00:29:53;;;;;;;2.22;1.17;;;;;;;12.31;68.30;97612.22;4157421;28;20045;-72
2023/03/23 00:31:56;;;;;;;2.15;1.10;;;;;;;12.26;68.34;97609.91;4157480;28;20440;-72
2023/03/23 00:33:58;;;;;;;1.83;1.17;;;;;;;12.22;68.51;97611.91;4156859;28;20470;-72
2023/03/23 00:35:58;;;;;;;1.27;1.00;;;;;;;12.17;68.93;97606.84;4158185;28;20045;-72
2023/03/23 00:37:59;;;;;;;1.45;1.00;;;;;;;12.17;68.77;97617.13;4156526;28;20136;-72
2023/03/23 00:40:00;;;;;;;1.80;1.10;;;;;;;12.22;68.81;97603.59;4158452;28;20285;-72
2023/03/23 00:42:00;;;;;;;3.15;1.10;;;;;;;12.22;68.58;97611.13;4158486;28;20037;-72
2023/03/23 00:44:00;;;;;;;1.52;1.02;;;;;;;12.17;68.10;97604.06;4157598;28;20081;-72
2023/03/23 00:46:08;;;;;;;1.58;0.98;;;;;;;12.21;68.95;97599.25;4157516;28;20042;-72
2023/03/23 00:48:08;;;;;;;1.55;1.20;;;;;;;12.22;68.13;97608.38;4158145;28;20598;-72
2023/03/23 00:50:09;;;;;;;1.25;1.02;;;;;;;12.26;68.47;97604.38;4158077;28;20120;-72
2023/03/23 00:52:10;;;;;;;2.65;1.30;;;;;;;12.27;68.83;97602.38;4157654;28;20486;-72
2023/03/23 00:54:11;;;;;;;1.27;1.10;;;;;;;12.18;68.94;97599.31;4157365;28;20041;-72
2023/03/23 00:56:11;;;;;;;3.47;1.20;;;;;;;12.06;69.44;97593.03;4158727;28;20425;-72
2023/03/23 00:58:13;;;;;;;1.70;1.23;;;;;;;12.00;69.30;97591.13;4158339;28;20030;-72
2023/03/23 01:00:14;;;;;;;1.85;1.35;;;;;;;11.99;69.07;97592.31;4158391;28;20042;-72
2023/03/23 01:02:16;;;;;;;1.65;0.90;;;;;;;12.04;69.18;97597.44;4158192;28;20049;-72
2023/03/23 01:04:16;;;;;;;2.37;1.00;;;;;;;12.01;68.79;97590.72;4157220;28;20037;-73
2023/03/23 01:06:17;;;;;;;1.52;1.00;;;;;;;11.96;69.61;97591.16;4158486;28;20257;-72
2023/03/23 01:08:18;;;;;;;2.58;1.35;;;;;;;11.94;69.20;97590.00;4157875;28;20130;-72
2023/03/23 01:10:18;;;;;;;1.83;1.20;;;;;;;11.92;70.00;97586.84;4158328;28;20108;-72
2023/03/23 01:12:19;;;;;;;1.98;1.00;;;;;;;11.95;69.22;97584.03;4158506;28;20480;-72
2023/03/23 01:14:19;;;;;;;1.50;1.15;;;;;;;12.01;69.55;97592.72;4157890;28;20501;-72
2023/03/23 01:16:20;;;;;;;2.78;1.20;;;;;;;12.00;69.05;97580.06;4157691;28;20029;-73
2023/03/23 01:18:20;;;;;;;2.35;1.30;;;;;;;11.91;70.16;97580.50;4157857;28;20566;-72
2023/03/23 01:20:21;;;;;;;2.30;1.10;;;;;;;11.87;70.88;97590.84;4157581;28;20478;-72
2023/03/23 01:22:21;;;;;;;1.40;1.17;;;;;;;11.82;70.07;97575.41;4157560;28;20092;-72
2023/03/23 01:24:22;;;;;;;3.40;1.30;;;;;;;11.79;70.40;97569.88;4157825;28;20486;-72
2023/03/23 01:26:25;;;;;;;2.63;1.10;;;;;;;11.82;69.77;97560.78;4157686;28;20053;-72
2023/03/23 01:28:25;;;;;;;1.42;1.00;;;;;;;11.88;69.85;97567.47;4157753;28;20561;-72
2023/03/23 01:30:26;;;;;;;2.20;1.20;;;;;;;11.92;70.11;97565.47;4157792;28;20084;-72
2023/03/23 01:32:27;;;;;;;3.45;1.10;;;;;;;11.88;69.89;97559.16;4157481;28;20104;-72
2023/03/23 01:34:27;;;;;;;3.83;1.08;;;;;;;11.86;70.89;97550.47;4157535;28;20037;-72
2023/03/23 01:36:32;;;;;;;1.50;1.08;;;;;;;11.89;70.14;97552.41;4157894;28;20099;-72
2023/03/23 01:38:34;;;;;;;1.73;1.10;;;;;;;11.85;70.49;97548.88;4158090;28;20085;-72
2023/03/23 01:40:34;;;;;;;1.58;1.05;;;;;;;11.79;70.62;97548.50;4157706;28;20037;-72
2023/03/23 01:42:37;;;;;;;3.25;1.52;;;;;;;11.78;71.19;97555.25;4153564;28;20496;-72
2023/03/23 01:44:37;;;;;;;2.03;1.25;;;;;;;11.73;72.39;97552.91;4146855;28;20058;-73
2023/03/23 01:46:37;;;;;;;1.67;1.30;;;;;;;11.65;71.62;97545.03;4157509;28;20148;-72
2023/03/23 01:48:39;;;;;;;1.60;1.23;;;;;;;11.67;71.31;97540.69;4157965;28;20935;-72
2023/03/23 01:50:49;;;;;;;1.98;1.23;;;;;;;11.65;72.01;97536.75;4157431;28;20371;-72
2023/03/23 01:52:54;;;;;;;2.75;1.10;;;;;;;11.67;72.44;97531.59;4157486;28;20042;-72
2023/03/23 01:54:56;;;;;;;1.45;1.23;;;;;;;11.67;72.10;97546.22;4157179;28;20034;-72
2023/03/23 01:57:01;;;;;;;2.88;1.33;;;;;;;11.69;72.30;97534.75;4157564;28;20095;-72
2023/03/23 01:59:01;;;;;;;1.52;1.15;;;;;;;11.64;72.41;97526.84;4157692;28;20037;-72
2023/03/23 02:01:06;;;;;;;4.20;1.42;;;;;;;11.65;72.73;97531.97;4157175;28;20056;-72
2023/03/23 02:03:08;;;;;;;1.77;1.20;;;;;;;11.65;72.69;97533.97;4157260;28;20038;-72
2023/03/23 02:05:13;;;;;;;3.58;1.15;;;;;;;11.73;72.60;97536.28;4157625;28;20662;-72
2023/03/23 02:07:17;;;;;;;2.00;1.48;;;;;;;11.69;72.69;97537.50;4157190;28;20091;-72
2023/03/23 02:09:18;;;;;;;1.95;1.40;;;;;;;11.72;72.20;97526.38;4157387;28;20044;-72
2023/03/23 02:11:21;;;;;;;3.08;1.50;;;;;;;11.78;72.69;97523.97;4157762;28;20041;-72
2023/03/23 02:13:21;;;;;;;2.20;1.08;;;;;;;11.78;72.18;97519.22;4156699;28;20038;-72
2023/03/23 02:15:25;;;;;;;2.53;1.02;;;;;;;11.87;71.47;97515.22;4157172;28;20072;-72
2023/03/23 02:17:46;;;;;;;2.58;1.40;;;;;;;11.92;70.77;97514.78;4157459;28;20042;-72
2023/03/23 02:20:08;;;;;;;2.00;1.10;;;;;;;12.00;70.71;97511.53;4157844;28;20041;-72
2023/03/23 02:22:18;;;;;;;3.03;1.33;;;;;;;11.97;71.41;97508.78;4156817;28;20049;-72
2023/03/23 02:24:38;;;;;;;1.80;1.17;;;;;;;11.96;71.05;97510.75;4156124;28;20038;-72
2023/03/23 02:26:53;;;;;;;3.55;1.30;;;;;;;11.96;70.90;97516.31;4156364;28;20390;-72
2023/03/23 02:29:03;;;;;;;2.13;1.30;;;;;;;11.94;71.64;97515.94;4157570;28;20042;-72
2023/03/23 02:31:38;;;;;;;2.20;1.38;;;;;;;11.97;71.52;97519.88;4156913;28;20374;-72
2023/03/23 02:34:09;;;;;;;3.33;1.30;;;;;;;11.95;71.33;97517.50;4155188;28;20382;-72
2023/03/23 02:36:15;;;;;;;2.08;1.30;;;;;;;11.89;71.96;97515.59;4156780;28;20045;-72
2023/03/23 02:38:20;;;;;;;1.60;1.20;;;;;;;11.92;71.36;97512.78;4157568;28;20480;-72
2023/03/23 02:40:26;;;;;;;5.03;1.30;;;;;;;11.96;71.21;97513.53;4157259;28;21028;-72
2023/03/23 02:42:31;;;;;;;2.15;1.40;;;;;;;12.03;70.68;97504.38;4156895;28;20037;-72
2023/03/23 02:44:35;;;;;;;3.80;1.27;;;;;;;12.11;70.68;97492.00;4156854;28;20061;-72
2023/03/23 02:46:37;;;;;;;6.22;1.30;;;;;;;12.08;71.09;97503.91;4156974;28;20122;-72
2023/03/23 02:48:41;;;;;;;1.40;1.13;;;;;;;12.04;71.72;97501.19;4157335;28;20124;-72
2023/03/23 02:50:45;;;;;;;3.67;1.30;;;;;;;11.99;71.51;97512.69;4156678;28;20120;-72
2023/03/23 02:52:49;;;;;;;2.38;1.48;;;;;;;11.91;72.08;97497.34;4157977;28;20594;-72
2023/03/23 02:54:52;;;;;;;3.13;1.40;;;;;;;11.86;72.49;97497.00;4160534;28;20056;-72
2023/03/23 02:56:54;;;;;;;2.30;1.20;;;;;;;11.81;73.36;97498.22;4159548;28;20059;-72
2023/03/23 02:58:55;;;;;;;1.45;1.25;;;;;;;11.73;73.65;97494.69;4160255;28;20037;-72
2023/03/23 03:00:56;;;;;;;4.90;2.60;;;;;;;11.69;74.00;97495.94;4159783;28;20055;-72
2023/03/23 03:02:57;;;;;;;3.25;1.80;;;;;;;11.75;73.17;97502.59;4159139;28;20099;-72
2023/03/23 03:05:10;;;;;;;7.65;5.43;;;;;;;11.82;72.99;97503.34;4159692;28;20044;-72
2023/03/23 03:07:29;;;;;;;3.08;2.60;;;;;;;11.81;73.61;97499.00;4159295;28;20142;-72
2023/03/23 03:09:46;;;;;;;2.70;2.08;;;;;;;11.77;73.94;97489.94;4160000;28;20482;-72
2023/03/23 03:11:51;;;;;;;2.45;1.50;;;;;;;11.73;73.48;97491.16;4160142;28;20394;-72
2023/03/23 03:14:04;;;;;;;3.90;1.60;;;;;;;11.70;73.93;97481.69;4159171;28;20041;-72
2023/03/23 03:16:16;;;;;;;;;;;;;;;11.68;74.62;97491.59;4159922;28;20061;-72
2023/03/23 03:18:22;;;;;;;2.00;1.15;;;;;;;11.70;73.45;97478.13;4160033;28;20374;-72
2023/03/23 03:20:26;;;;;;;3.30;1.40;;;;;;;11.72;74.21;97493.13;4158982;28;20041;-72
2023/03/23 03:22:28;;;;;;;6.93;1.70;;;;;;;11.68;74.75;97489.63;4158812;28;20486;-72
2023/03/23 03:24:30;;;;;;;1.98;1.50;;;;;;;11.64;74.52;97491.63;4160288;28;20089;-72
2023/03/23 03:26:34;;;;;;;3.40;1.42;;;;;;;11.64;74.35;97501.91;4159217;28;20400;-72
2023/03/23 03:28:35;;;;;;;3.80;1.25;;;;;;;11.63;74.56;97490.06;4159176;28;20041;-72
2023/03/23 03:30:37;;;;;;;2.55;1.38;;;;;;;11.61;74.84;97509.06;4159962;28;20041;-72
2023/03/23 03:32:46;;;;;;;3.35;1.58;;;;;;;11.61;74.60;97511.84;4158473;28;20099;-72
2023/03/23 03:34:47;;;;;;;2.20;1.40;;;;;;;11.61;75.39;97509.06;4159318;28;20052;-72
2023/03/23 03:36:50;;;;;;;1.77;1.25;;;;;;;11.61;75.07;97505.50;4159839;28;20045;-72
2023/03/23 03:38:51;;;;;;;3.03;1.35;;;;;;;11.64;74.31;97496.38;4159339;28;20063;-72
2023/03/23 03:40:52;;;;;;;2.85;1.63;;;;;;;11.70;75.79;97492.75;4159312;28;20049;-72
2023/03/23 03:42:52;;;;;;;1.60;1.13;;;;;;;11.66;74.76;97503.06;4158167;28;20143;-72
2023/03/23 03:44:52;;;;;;;3.70;1.55;;;;;;;11.70;76.07;97489.22;4159685;28;21158;-72
2023/03/23 03:46:52;;;;;;;1.63;1.25;;;;;;;11.71;74.28;97485.25;4159268;28;20550;-72
2023/03/23 03:48:53;;;;;;;1.88;1.20;;;;;;;11.86;73.75;97486.72;4159128;28;20553;-72
2023/03/23 03:50:56;;;;;;;2.20;1.35;;;;;;;11.81;74.59;97498.22;4159536;28;20056;-72
2023/03/23 03:52:57;;;;;;;1.73;1.42;;;;;;;11.88;74.37;97492.63;4158668;28;20457;-72
2023/03/23 03:54:58;;;;;;;4.55;1.80;;;;;;;11.86;73.91;97475.63;4158769;28;20034;-72
2023/03/23 03:56:59;;;;;;;4.25;2.17;;;;;;;11.84;73.80;97486.34;4159097;28;20494;-72
2023/03/23 03:58:59;;;;;;;2.45;1.50;;;;;;;11.77;75.08;97484.38;4159355;28;20121;-72
2023/03/23 04:01:00;;;;;;;3.88;2.15;;;;;;;11.79;73.91;97492.28;4158763;28;20069;-72
2023/03/23 04:03:00;;;;;;;2.50;1.45;;;;;;;11.78;74.33;97491.50;4157675;28;20370;-72
2023/03/23 04:05:03;;;;;;;5.63;2.65;;;;;;;11.77;74.68;97480.84;4159406;28;20204;-72
2023/03/23 04:07:04;;;;;;;4.45;2.30;;;;;;;11.69;75.64;97498.72;4159240;28;20122;-72
2023/03/23 04:09:06;;;;;;;2.30;1.60;;;;;;;11.69;75.26;97505.03;4159022;28;20370;-72
2023/03/23 04:11:10;;;;;;;2.63;1.60;;;;;;;11.77;74.95;97508.53;4158673;28;20042;-72
2023/03/23 04:13:10;;;;;;;2.60;1.40;;;;;;;11.79;74.50;97518.00;4157429;28;20049;-72
2023/03/23 04:15:11;;;;;;;2.10;1.40;;;;;;;11.75;74.95;97524.78;4159189;28;20412;-72
2023/03/23 04:17:11;;;;;;;1.83;1.40;;;;;;;11.71;75.11;97524.81;4158791;28;20091;-72
2023/03/23 04:19:12;;;;;;;2.70;1.33;;;;;;;11.72;75.04;97525.59;4158726;28;20064;-72
2023/03/23 04:21:14;;;;;;;2.47;1.40;;;;;;;11.69;75.30;97523.66;4159286;28;20320;-72
2023/03/23 04:23:19;;;;;;;2.63;1.50;;;;;;;11.75;74.91;97513.69;4157842;28;20045;-72
2023/03/23 04:25:20;;;;;;;3.47;1.50;;;;;;;11.70;75.86;97525.22;4158561;28;20049;-72
2023/03/23 04:27:22;;;;;;;3.28;2.05;;;;;;;11.69;77.00;97526.44;4158498;28;20928;-72
2023/03/23 04:29:23;;;;;;;2.35;1.50;;;;;;;11.67;77.15;97515.75;4158391;28;20029;-72
2023/03/23 04:31:24;;;;;;;6.35;1.70;;;;;;;11.62;77.58;97513.41;4158834;28;20061;-72
2023/03/23 04:33:26;;;;;;;3.50;1.50;;;;;;;11.56;77.96;97517.03;4157989;28;20224;-72
2023/03/23 04:35:28;;;;;;;2.60;1.15;;;;;;;11.59;77.84;97517.00;4158176;28;20091;-72
2023/03/23 04:37:29;;;;;;;1.55;1.20;;;;;;;11.60;77.87;97515.81;4158483;28;20490;-72
2023/03/23 04:39:33;;;;;;;1.35;1.17;;;;;;;11.50;79.08;97509.16;4158912;28;20081;-72
2023/03/23 04:41:34;;;;;;;4.15;1.40;;;;;;;11.54;79.50;97509.91;4158074;28;20084;-72
2023/03/23 04:43:41;;;;;;;1.88;1.40;;;;;;;11.49;79.13;97518.66;4157767;28;20038;-72
2023/03/23 04:45:45;;;;;;;2.47;1.30;;;;;;;11.45;79.35;97522.66;4160250;28;20080;-72
2023/03/23 04:47:52;;;;;;;1.98;1.27;;;;;;;11.43;79.51;97509.22;4158226;28;20060;-72
2023/03/23 04:49:53;;;;;;;1.90;1.10;;;;;;;11.38;79.47;97500.53;4158058;28;20040;-72
2023/03/23 04:51:53;;;;;;;2.25;1.10;;;;;;;11.44;78.65;97510.78;4158447;28;20111;-72
2023/03/23 04:53:53;;;;;;;2.95;1.30;;;;;;;11.39;78.53;97504.88;4157483;28;20053;-72
2023/03/23 04:55:54;;;;;;;1.60;1.10;;;;;;;11.35;78.92;97509.66;4158231;28;20144;-72
2023/03/23 04:57:56;;;;;;;4.43;1.35;;;;;;;11.34;79.14;97519.97;4158390;28;20397;-72
2023/03/23 04:59:56;;;;;;;1.20;1.10;;;;;;;11.31;80.97;97526.28;4158113;28;20041;-72
2023/03/23 05:01:57;;;;;;;1.40;1.30;;;;;;;11.32;81.64;97521.53;4158152;28;20416;-72
2023/03/23 05:03:57;;;;;;;1.73;1.17;;;;;;;11.31;81.77;97528.28;4157377;28;20096;-72
2023/03/23 05:06:02;;;;;;;1.42;1.23;;;;;;;11.22;82.51;97529.50;4158501;28;20362;-72
2023/03/23 05:08:03;;;;;;;1.65;1.20;;;;;;;11.17;83.68;97531.91;4157997;28;20041;-72
2023/03/23 05:10:05;;;;;;;2.35;1.23;;;;;;;11.15;83.52;97537.06;4157672;28;20033;-72
2023/03/23 05:12:07;;;;;;;1.10;0.90;;;;;;;11.14;84.05;97541.81;4158013;28;20025;-72
2023/03/23 05:14:07;;;;;;;1.00;0.90;;;;;;;11.02;85.33;97531.22;4157121;28;20095;-72
2023/03/23 05:16:07;;;;;;;3.72;1.75;;;;;;;10.97;84.99;97537.97;4157569;28;20033;-72
2023/03/23 05:18:09;;;;;;;2.65;1.80;;;;;;;10.98;85.24;97536.78;4158163;28;20883;-72
2023/03/23 05:20:12;;;;;;;3.22;2.70;;;;;;;10.97;85.42;97537.97;4158189;28;20358;-72
2023/03/23 05:22:14;;;;;;;2.88;1.58;;;;;;;10.88;85.82;97528.53;4157474;28;20353;-72
2023/03/23 05:24:14;;;;;;;1.92;1.10;;;;;;;10.93;85.28;97539.19;4157426;28;20477;-72
2023/03/23 05:26:14;;;;;;;2.45;1.30;;;;;;;10.91;86.43;97563.69;4157068;28;20033;-72
2023/03/23 05:28:15;;;;;;;1.90;1.20;;;;;;;10.94;85.73;97538.78;4157882;28;20052;-72
2023/03/23 05:30:16;;;;;;;2.30;1.15;;;;;;;10.93;86.02;97536.41;4157809;28;20116;-71
2023/03/23 05:32:18;;;;;;;1.05;0.90;;;;;;;10.91;86.24;97542.34;4157934;28;20416;-72
2023/03/23 05:34:19;;;;;;;3.05;1.13;;;;;;;10.86;87.38;97528.16;4156861;28;20116;-72
2023/03/23 05:36:19;;;;;;;2.67;1.00;;;;;;;10.83;88.15;97537.25;4157753;28;20099;-71
2023/03/23 05:38:20;;;;;;;1.30;1.10;;;;;;;10.85;88.31;97532.91;4158063;28;20478;-72
2023/03/23 05:40:20;;;;;;;1.60;1.20;;;;;;;10.82;88.96;97543.97;4157403;28;20218;-72
2023/03/23 05:42:24;;;;;;;1.35;0.95;;;;;;;10.83;89.16;97543.56;4157352;28;20523;-72
2023/03/23 05:44:24;;;;;;;1.73;1.38;;;;;;;10.82;89.72;97553.06;4157564;28;20466;-72
2023/03/23 05:46:24;;;;;;;2.67;1.02;;;;;;;10.76;90.41;97542.81;4158503;28;20050;-72
2023/03/23 05:48:24;;;;;;;2.17;1.30;;;;;;;10.81;89.66;97542.41;4157588;28;20064;-72
2023/03/23 05:50:26;;;;;;;2.17;1.25;;;;;;;10.74;90.23;97547.94;4157666;28;20044;-72
2023/03/23 05:52:26;;;;;;;1.63;1.10;;;;;;;10.77;90.16;97544.41;4157378;28;20057;-72
2023/03/23 05:54:27;;;;;;;1.70;1.20;;;;;;;10.79;90.78;97555.84;4156885;28;20033;-72
2023/03/23 05:56:30;;;;;;;1.45;1.10;;;;;;;10.77;91.41;97561.00;4157632;28;20038;-72
2023/03/23 05:58:31;;;;;;;2.03;1.30;;;;;;;10.80;91.17;97569.28;4157269;28;20041;-72
2023/03/23 06:00:32;;;;;;;2.55;1.30;;;;;;;10.85;90.73;97579.16;4157676;28;20045;-71
2023/03/23 06:02:33;;;;;;;1.70;1.30;;;;;;;10.79;92.03;97576.00;4157093;28;20037;-71
2023/03/23 06:04:34;;;;;;;1.40;1.10;;;;;;;10.77;92.09;97574.84;4157340;28;20038;-71
2023/03/23 06:06:35;;;;;;;2.00;1.23;;;;;;;10.76;92.65;97584.31;4095590;28;20041;-72
2023/03/23 06:08:36;;;;;;;1.10;1.00;;;;;;;10.78;92.72;97590.25;4157394;28;20041;-72
2023/03/23 06:10:37;;;;;;;1.38;1.17;;;;;;;10.80;92.18;97582.31;4156964;28;20041;-72
2023/03/23 06:12:39;;;;;;;2.03;1.20;;;;;;;10.80;92.83;97582.31;4156942;28;20045;-71
2023/03/23 06:14:39;;;;;;;1.90;1.10;;;;;;;10.77;93.19;97585.91;4157740;28;20236;-72
2023/03/23 06:16:40;;;;;;;4.05;1.38;;;;;;;10.79;93.64;97575.22;4157047;28;20049;-72
2023/03/23 06:18:40;;;;;;;3.67;1.33;;;;;;;10.76;94.07;97589.84;4157313;28;20153;-72
2023/03/23 06:20:41;;;;;;;3.95;1.30;;;;;;;10.81;93.66;97592.19;4157443;28;20051;-72
2023/03/23 06:22:42;;;;;;;5.03;1.58;;;;;;;10.81;95.05;97595.75;4156380;28;20061;-72
2023/03/23 06:24:43;;;;;;;2.78;1.30;;;;;;;10.76;95.24;97589.84;4157108;28;20073;-72
2023/03/23 06:26:44;;;;;;;2.65;1.30;;;;;;;10.77;96.21;97600.53;4158699;28;20227;-72
2023/03/23 06:28:44;;;;;;;2.67;1.33;;;;;;;10.77;96.22;97572.84;4160558;28;20441;-72
2023/03/23 06:30:45;;;;;;;2.60;1.40;;;;;;;10.78;96.91;97577.19;4160721;28;20037;-72
2023/03/23 06:32:47;;;;;;;1.77;1.25;;;;;;;10.78;96.75;97573.66;4159810;28;20061;-72
2023/03/23 06:34:47;;;;;;;2.35;1.20;;;;;;;10.74;98.41;97573.63;4160144;28;20041;-72
2023/03/23 06:36:47;;;;;;;2.25;1.30;;;;;;;10.75;97.42;97585.50;4160693;28;20033;-72
2023/03/23 06:38:48;;;;;;;2.08;1.40;;;;;;;10.76;98.39;97589.84;4160054;28;20046;-72
2023/03/23 06:40:55;;;;;;;1.40;1.20;;;;;;;10.74;98.56;97583.91;4160015;28;20842;-72
2023/03/23 06:43:01;;;;;;;2.10;1.50;;;;;;;10.73;97.60;97598.94;4160114;28;20068;-72
2023/03/23 06:45:02;;;;;;;2.47;1.40;;;;;;;10.72;98.40;97589.88;4160067;28;20041;-72
2023/03/23 06:47:04;;;;;;;2.10;1.33;;;;;;;10.70;98.61;97589.47;4160549;28;20099;-72
2023/03/23 06:49:04;;;;;;;2.80;1.50;;;;;;;10.76;97.49;97581.53;4159995;28;20073;-72
2023/03/23 06:51:05;;;;;;;1.30;1.10;;;;;;;10.73;97.60;97590.66;4160082;28;20076;-72
2023/03/23 06:53:06;;;;;;;3.13;1.65;;;;;;;10.74;98.86;97584.72;4159159;28;20037;-72
2023/03/23 06:55:06;;;;;;;3.13;1.40;;;;;;;10.77;99.45;97591.44;4160083;28;20390;-72
2023/03/23 06:57:08;;;;;;;1.92;1.58;;;;;;;10.77;99.19;97588.66;4160004;28;20037;-71
2023/03/23 06:59:10;;;;;;;2.35;1.75;;;;;;;10.76;99.23;97592.59;4160036;28;20030;-71
2023/03/23 07:01:10;;;;;;;2.08;1.48;;;;;;;10.74;98.93;97589.44;4160050;28;20486;-72
2023/03/23 07:03:11;;;;;;;1.45;1.23;;;;;;;10.76;99.34;97595.38;4159787;28;20061;-72
2023/03/23 07:05:12;;;;;;;2.03;1.63;;;;;;;10.81;98.50;97594.97;4160031;28;20077;-72
2023/03/23 07:07:14;;;;;;;2.20;1.60;;;;;;;10.82;98.42;97594.56;4159745;28;20530;-72
2023/03/23 07:09:14;;;;;;;1.70;1.45;;;;;;;10.88;96.35;97581.09;4160604;28;20938;-72
2023/03/23 07:11:15;;;;;;;2.10;1.42;;;;;;;10.85;97.50;97579.16;4159567;28;20191;-72
2023/03/23 07:13:15;;;;;;;3.20;1.65;;;;;;;10.86;97.87;97586.25;4159250;28;20037;-72
2023/03/23 07:15:16;;;;;;;2.40;1.45;;;;;;;10.81;98.12;97579.16;4160025;28;20045;-72
2023/03/23 07:17:17;;;;;;;2.55;1.50;;;;;;;10.88;95.80;97572.81;4160118;28;20045;-72
2023/03/23 07:19:17;;;;;;;3.92;1.50;;;;;;;10.89;96.16;97571.63;4160174;28;20476;-72
2023/03/23 07:21:17;;;;;;;1.92;1.38;;;;;;;11.01;96.66;97575.94;4159427;28;20489;-72
2023/03/23 07:23:19;;;;;;;3.80;1.67;;;;;;;11.01;96.80;97570.41;4158819;28;20102;-72
2023/03/23 07:25:19;;;;;;;1.73;1.30;;;;;;;10.99;96.34;97562.47;4159605;28;20474;-71
2023/03/23 07:27:20;;;;;;;2.30;1.63;;;;;;;10.95;96.95;97568.03;4159615;28;20029;-71
2023/03/23 07:29:20;;;;;;;2.13;1.55;;;;;;;11.03;97.69;97579.06;4159866;28;20151;-72
2023/03/23 07:31:21;;;;;;;2.22;1.55;;;;;;;11.04;95.80;97570.34;4159649;28;20045;-72
2023/03/23 07:33:22;;;;;;;2.45;1.40;;;;;;;11.03;97.01;97565.22;4158557;28;20041;-71
2023/03/23 07:35:24;;;;;;;2.25;1.50;;;;;;;11.04;96.83;97564.81;4159059;28;20041;-71
2023/03/23 07:37:25;;;;;;;1.63;1.38;;;;;;;11.05;96.37;97566.41;4159582;28;20049;-72
2023/03/23 07:39:25;;;;;;;2.90;1.50;;;;;;;11.08;96.08;97576.66;4158847;28;20362;-72
2023/03/23 07:41:26;;;;;;;1.52;1.33;;;;;;;11.13;97.07;97573.47;4159408;28;20047;-72
2023/03/23 07:43:26;;;;;;;2.83;1.45;;;;;;;11.18;95.31;97570.28;4158992;28;20311;-72
2023/03/23 07:45:28;;;;;;;3.80;1.70;;;;;;;11.25;95.76;97558.38;4159236;28;20049;-72
2023/03/23 07:47:28;;;;;;;3.78;1.40;;;;;;;11.31;94.38;97558.75;4159613;28;20447;-72
2023/03/23 07:49:30;;;;;;;1.38;1.27;;;;;;;11.36;94.54;97561.09;4159074;28;20033;-72
2023/03/23 07:51:32;;;;;;;2.10;1.52;;;;;;;11.40;94.25;97559.88;4158982;28;20054;-72
2023/03/23 07:53:33;;;;;;;2.25;1.52;;;;;;;11.46;94.82;97571.31;4158857;28;20045;-72
2023/03/23 07:55:33;;;;;;;1.75;1.33;;;;;;;11.51;94.18;97576.44;4159193;28;20039;-72
2023/03/23 07:57:34;;;;;;;2.70;1.30;;;;;;;11.50;93.52;97566.53;4159339;28;20452;-72
2023/03/23 07:59:35;;;;;;;2.55;1.30;;;;;;;11.58;93.62;97568.03;4159386;28;20041;-72
2023/03/23 08:01:35;;;;;;;2.03;1.60;;;;;;;11.62;92.95;97557.75;4158784;28;20057;-71
2023/03/23 08:03:36;;;;;;;5.63;1.33;;;;;;;11.68;92.92;97567.19;4158449;28;20033;-72
2023/03/23 08:05:37;;;;;;;1.80;1.20;;;;;;;11.73;91.90;97571.50;4158832;28;20478;-71
2023/03/23 08:07:37;;;;;;;3.00;1.52;;;;;;;11.77;92.19;97567.53;4159181;28;20037;-72
2023/03/23 08:09:38;;;;;;;2.70;1.50;;;;;;;11.76;90.73;97562.41;4159116;28;20037;-72
2023/03/23 08:11:39;;;;;;;2.55;1.60;;;;;;;11.82;92.23;97564.31;4158799;28;20397;-72
2023/03/23 08:13:39;;;;;;;4.70;1.50;;;;;;;11.79;91.40;97559.59;4158736;28;20042;-71
2023/03/23 08:15:40;;;;;;;2.50;1.40;;;;;;;11.82;91.57;97567.09;4158938;28;20045;-72
2023/03/23 08:17:42;;;;;;;3.15;1.40;;;;;;;11.89;91.25;97565.47;4159077;28;20064;-72
2023/03/23 08:19:42;;;;;;;2.33;1.50;;;;;;;11.95;90.63;97577.72;4158691;28;20045;-72
2023/03/23 08:21:43;;;;;;;2.40;1.60;;;;;;;11.97;89.84;97567.00;4158567;28;20044;-72
2023/03/23 08:23:43;;;;;;;3.05;1.20;;;;;;;12.03;90.00;97565.38;4158020;28;20041;-72
2023/03/23 08:25:44;;;;;;;1.92;1.33;;;;;;;12.15;89.04;97572.38;4159149;28;20053;-71
2023/03/23 08:27:44;;;;;;;1.83;1.30;;;;;;;12.26;88.66;97560.00;4158721;28;20041;-71
2023/03/23 08:29:45;;;;;;;3.03;1.35;;;;;;;12.41;88.34;97543.19;4158583;28;20470;-72
2023/03/23 08:31:46;;;;;;;1.85;1.40;;;;;;;12.48;86.49;97556.97;4158601;28;20041;-72
2023/03/23 08:33:47;;;;;;;1.95;1.30;;;;;;;12.59;85.60;97566.00;4158161;28;20433;-71
2023/03/23 08:35:58;;;;;;;1.50;1.05;;;;;;;12.64;85.45;97562.75;4158523;28;20068;-72
2023/03/23 08:37:58;;;;;;;2.72;1.00;;;;;;;12.66;85.08;97571.47;4158972;28;20037;-72
2023/03/23 08:39:59;;;;;;;1.55;1.17;;;;;;;12.67;85.96;97580.59;4158911;28;20041;-72
2023/03/23 08:41:59;;;;;;;2.15;1.20;;;;;;;12.73;84.51;97567.81;4158411;28;20069;-72
2023/03/23 08:44:00;;;;;;;2.90;1.10;;;;;;;12.72;84.73;97582.88;4157979;28;20037;-72
2023/03/23 08:46:06;;;;;;;1.77;1.20;;;;;;;12.71;84.58;97573.00;4158147;28;20037;-72
2023/03/23 08:48:07;;;;;;;3.45;1.73;;;;;;;12.76;83.75;97570.56;4157872;28;20084;-72
2023/03/23 08:50:12;;;;;;;2.78;1.40;;;;;;;12.78;83.12;97584.00;4157992;28;20022;-72
2023/03/23 08:52:13;;;;;;;2.40;1.10;;;;;;;12.86;83.82;97594.63;4156950;28;20519;-72
2023/03/23 08:54:13;;;;;;;3.63;1.10;;;;;;;12.91;83.36;97599.72;4158322;28;20040;-72
2023/03/23 08:56:14;;;;;;;5.03;1.23;;;;;;;12.93;80.73;97605.66;4158037;28;20433;-72
2023/03/23 08:58:14;;;;;;;1.20;0.93;;;;;;;12.84;79.47;97599.81;4158058;28;20445;-72
2023/03/23 09:00:18;;;;;;;1.85;1.00;;;;;;;12.84;79.47;97588.69;4158499;28;20336;-71
2023/03/23 09:02:18;;;;;;;1.35;1.10;;;;;;;12.84;80.29;97597.03;4158295;28;20041;-72
2023/03/23 09:04:19;;;;;;;2.55;1.38;;;;;;;12.86;81.56;97585.50;4157041;28;20492;-72
2023/03/23 09:06:19;;;;;;;3.63;1.20;;;;;;;12.88;81.91;97591.44;4158358;28;21349;-72
2023/03/23 09:08:20;;;;;;;1.38;0.95;;;;;;;12.90;80.40;97569.56;4158112;28;20048;-71
2023/03/23 09:10:22;;;;;;;3.83;1.65;;;;;;;12.88;79.82;97574.75;4158315;28;20123;-71
2023/03/23 09:12:23;;;;;;;3.97;1.30;;;;;;;12.86;79.78;97572.41;4157871;28;20045;-71
2023/03/23 09:14:23;;;;;;;1.88;1.10;;;;;;;12.88;79.15;97567.22;4157633;28;20057;-71
2023/03/23 09:16:24;;;;;;;2.47;1.00;;;;;;;12.89;79.49;97571.56;4158685;28;20385;-71
2023/03/23 09:18:25;;;;;;;1.55;1.10;;;;;;;12.76;79.73;97565.00;4157477;28;20029;-71
2023/03/23 09:20:27;;;;;;;1.77;0.88;;;;;;;12.76;80.48;97572.53;4157882;28;20432;-71
2023/03/23 09:22:28;;;;;;;2.22;1.17;;;;;;;12.74;81.46;97578.50;4157547;28;20041;-71
2023/03/23 09:24:29;;;;;;;1.10;1.00;;;;;;;12.73;82.76;97590.78;4158405;28;20053;-71
2023/03/23 09:26:31;;;;;;;1.80;1.30;;;;;;;12.68;82.85;97582.94;4157782;28;20448;-71
2023/03/23 09:28:31;;;;;;;2.83;1.05;;;;;;;12.70;82.31;97593.63;4157788;28;20041;-71
2023/03/23 09:30:36;;;;;;;2.15;1.20;;;;;;;12.77;82.07;97588.78;4158211;28;20152;-71
2023/03/23 09:32:38;;;;;;;1.77;0.95;;;;;;;12.81;83.33;97594.28;4156987;28;20055;-71
2023/03/23 09:34:39;;;;;;;1.60;1.10;;;;;;;12.85;82.36;97598.59;4157878;28;20422;-71
2023/03/23 09:36:39;;;;;;;1.10;0.98;;;;;;;12.85;83.76;97601.38;4157790;28;20110;-71